Time;durP1;ratioP1;P1;durP2;ratioP2;P2;SDS_P1;SDS_P2;PMS_P1;PMS_P2;Temp;Humidity;BMP_temperature;BMP_pressure;BME280_temperature;BME280_humidity;BME280_pressure;Samples;Min_cycle;Max_cycle;Signal;HPM_P1;HPM_P2
2022/06/22 00:00:39;;;;;;;6.25;3.52;;;;;;;22.75;100.00;99242.49;1664250;85;21070;-68
2022/06/22 00:03:09;;;;;;;5.17;3.27;;;;;;;22.96;100.00;99239.17;1661824;85;21051;-68
2022/06/22 00:05:44;;;;;;;3.70;3.33;;;;;;;22.75;100.00;99239.87;1660983;85;21087;-68
2022/06/22 00:08:13;;;;;;;;;;;;;;;22.80;100.00;99220.97;1666032;85;21085;-68
2022/06/22 00:10:55;;;;;;;8.20;3.65;;;;;;;23.04;100.00;99216.01;1643450;86;20152;-68
2022/06/22 00:13:28;;;;;;;6.25;4.25;;;;;;;23.03;100.00;99231.92;1662775;85;21060;-68
2022/06/22 00:16:04;;;;;;;4.72;3.80;;;;;;;22.83;100.00;99226.34;1632287;85;21097;-68
2022/06/22 00:18:39;;;;;;;7.62;3.42;;;;;;;22.95;100.00;99215.73;1664362;85;21102;-68
2022/06/22 00:21:18;;;;;;;5.12;3.37;;;;;;;22.97;100.00;99211.95;1662530;85;21055;-69
2022/06/22 00:23:49;;;;;;;5.60;3.47;;;;;;;22.63;100.00;99229.95;1654877;85;21209;-68
2022/06/22 00:26:31;;;;;;;7.28;3.65;;;;;;;22.76;100.00;99239.37;1662411;85;21016;-68
2022/06/22 00:29:12;;;;;;;5.90;3.52;;;;;;;22.96;100.00;99241.80;1664883;85;21062;-67
2022/06/22 00:31:53;;;;;;;6.37;3.33;;;;;;;23.02;100.00;99242.93;1662961;85;21063;-67
2022/06/22 00:34:28;;;;;;;3.60;3.05;;;;;;;23.26;100.00;99242.38;1661640;85;21599;-68
2022/06/22 00:37:07;;;;;;;3.95;3.47;;;;;;;23.66;100.00;99258.16;1666440;85;21583;-68
2022/06/22 00:39:42;;;;;;;6.83;3.75;;;;;;;23.82;100.00;99276.85;1662059;85;21070;-70
2022/06/22 00:42:14;;;;;;;5.65;3.20;;;;;;;23.74;100.00;99283.49;1637875;86;21105;-68
2022/06/22 00:44:58;;;;;;;3.90;3.30;;;;;;;23.66;100.00;99280.97;1656365;86;21056;-67
2022/06/22 00:47:58;;;;;;;6.33;3.15;;;;;;;23.93;100.00;99288.22;1666304;85;21068;-68
2022/06/22 00:50:45;;;;;;;3.75;2.95;;;;;;;24.24;100.00;99302.11;1663594;85;21607;-67
2022/06/22 00:53:20;;;;;;;3.10;2.80;;;;;;;24.10;100.00;99334.02;1663193;85;21107;-67
2022/06/22 00:55:56;;;;;;;3.50;2.70;;;;;;;23.79;100.00;99333.23;1665157;85;21072;-67
2022/06/22 00:58:34;;;;;;;4.00;3.60;;;;;;;23.90;100.00;99296.97;1659584;85;21091;-67
2022/06/22 01:01:26;;;;;;;11.70;5.80;;;;;;;23.92;100.00;99270.80;1664545;85;21520;-67
2022/06/22 01:04:11;;;;;;;15.55;8.88;;;;;;;23.78;100.00;99288.25;1650574;86;21068;-67
2022/06/22 01:06:55;;;;;;;27.93;13.13;;;;;;;23.68;100.00;99304.77;1661587;85;21027;-67
2022/06/22 01:09:29;;;;;;;;;;;;;;;23.67;100.00;99301.81;1659339;85;21110;-67
2022/06/22 01:12:22;;;;;;;33.48;17.00;;;;;;;23.62;100.00;99302.03;1666648;85;20129;-67
2022/06/22 01:15:08;;;;;;;32.70;17.25;;;;;;;23.58;100.00;99289.75;1659680;85;21027;-67
2022/06/22 01:17:41;;;;;;;30.05;15.48;;;;;;;23.44;100.00;99248.55;1660403;85;21529;-67
2022/06/22 01:20:36;;;;;;;28.15;14.58;;;;;;;23.22;100.00;99200.41;1659991;86;21632;-67
2022/06/22 01:23:11;;;;;;;34.00;15.65;;;;;;;23.14;100.00;99163.25;1664818;85;21142;-67
2022/06/22 01:26:11;;;;;;;36.03;16.57;;;;;;;23.18;100.00;99154.81;1670216;85;21058;-67
2022/06/22 01:28:38;;;;;;;32.67;16.80;;;;;;;23.03;100.00;99132.19;1661481;85;21120;-67
2022/06/22 01:31:12;;;;;;;38.25;17.62;;;;;;;23.48;100.00;99144.28;1658252;85;21056;-68
2022/06/22 01:33:45;;;;;;;38.08;17.87;;;;;;;23.64;100.00;99164.27;1624875;86;21012;-67
2022/06/22 01:36:29;;;;;;;33.92;18.37;;;;;;;23.86;100.00;99183.51;1656256;85;21063;-67
2022/06/22 01:38:57;;;;;;;38.60;17.45;;;;;;;23.93;100.00;99185.72;1659869;85;21528;-68
2022/06/22 01:42:00;;;;;;;36.28;18.05;;;;;;;23.95;100.00;99192.11;1662945;85;21038;-67
2022/06/22 01:44:58;;;;;;;33.98;16.65;;;;;;;24.10;100.00;99196.80;1661821;85;21075;-67
2022/06/22 01:47:58;;;;;;;31.50;15.95;;;;;;;24.07;100.00;99205.55;1662698;85;21551;-67
2022/06/22 01:50:42;;;;;;;31.07;16.17;;;;;;;24.03;100.00;99203.81;1662986;85;21083;-67
2022/06/22 01:53:27;;;;;;;29.23;14.33;;;;;;;24.16;100.00;99213.13;1663750;85;21083;-67
2022/06/22 01:56:11;;;;;;;25.40;14.05;;;;;;;24.01;100.00;99209.77;1660371;85;21090;-67
2022/06/22 01:59:02;;;;;;;26.48;14.18;;;;;;;23.94;100.00;99210.98;1663093;85;21575;-67
2022/06/22 02:01:37;;;;;;;23.65;12.80;;;;;;;24.01;100.00;99218.96;1660782;86;21063;-67
2022/06/22 02:04:19;;;;;;;23.30;12.35;;;;;;;23.85;100.00;99233.14;1660259;85;21682;-67
2022/06/22 02:10:18;;;;;;;22.10;11.70;;;;;;;23.95;100.00;99221.83;1666744;85;21062;-67
2022/06/22 02:13:04;;;;;;;21.90;10.85;;;;;;;24.02;100.00;99261.32;1665241;85;21130;-68
2022/06/22 02:15:51;;;;;;;19.95;10.60;;;;;;;23.95;100.00;99261.76;1613914;86;21056;-67
2022/06/22 02:18:44;;;;;;;17.45;10.25;;;;;;;24.12;100.00;99257.08;1658393;85;21075;-67
2022/06/22 02:21:42;;;;;;;17.82;9.78;;;;;;;23.98;100.00;99250.36;1661612;86;21099;-66
2022/06/22 02:24:29;;;;;;;18.40;9.00;;;;;;;24.06;100.00;99250.75;1659093;85;21584;-67
2022/06/22 02:27:14;;;;;;;11.97;7.42;;;;;;;24.02;100.00;99242.92;1656085;85;21075;-67
2022/06/22 02:29:45;;;;;;;15.23;7.60;;;;;;;23.94;100.00;99245.66;1663555;85;21106;-67
2022/06/22 02:32:18;;;;;;;12.45;6.55;;;;;;;23.97;100.00;99238.73;1661122;85;21115;-67
2022/06/22 02:34:52;;;;;;;11.08;6.28;;;;;;;23.86;100.00;99233.44;1663613;85;21035;-67
2022/06/22 02:37:20;;;;;;;;;;;;;;;23.88;100.00;99235.38;1661292;85;21059;-67
2022/06/22 02:39:53;;;;;;;12.25;6.80;;;;;;;23.72;100.00;99232.94;1664664;85;20186;-67
2022/06/22 02:45:09;;;;;;;11.43;6.58;;;;;;;23.69;100.00;99232.81;1661492;86;21079;-67
2022/06/22 02:48:14;;;;;;;7.78;5.42;;;;;;;23.68;100.00;99230.37;1659262;85;21035;-67
2022/06/22 02:50:47;;;;;;;9.93;6.22;;;;;;;23.60;100.00;99236.53;1659596;85;21055;-66
2022/06/22 02:53:25;;;;;;;8.70;5.60;;;;;;;23.79;100.00;99229.94;1661273;85;21146;-67
2022/06/22 02:55:55;;;;;;;7.25;5.60;;;;;;;23.76;100.00;99228.47;1657766;85;21532;-67
2022/06/22 02:58:33;;;;;;;11.48;5.53;;;;;;;23.80;100.00;99226.30;1662563;86;21114;-67
2022/06/22 03:01:07;;;;;;;9.25;5.08;;;;;;;23.84;100.00;99224.12;1659076;86;21084;-67
2022/06/22 03:03:35;;;;;;;9.10;5.28;;;;;;;23.87;100.00;99223.77;1661537;85;21059;-67
2022/06/22 03:06:03;;;;;;;9.43;4.90;;;;;;;23.89;100.00;99236.22;1665479;85;21083;-67
2022/06/22 03:08:30;;;;;;;8.38;5.25;;;;;;;23.99;100.00;99232.28;1655394;85;21111;-67
2022/06/22 03:11:07;;;;;;;7.17;5.22;;;;;;;24.00;100.00;99237.03;1660630;85;21516;-67
2022/06/22 03:13:48;;;;;;;7.30;5.00;;;;;;;23.98;100.00;99234.58;1665614;85;21054;-67
2022/06/22 03:16:31;;;;;;;8.13;5.10;;;;;;;23.94;100.00;99242.52;1662230;85;21052;-67
2022/06/22 03:19:04;;;;;;;6.95;5.25;;;;;;;23.84;100.00;99241.20;1662970;85;21043;-67
2022/06/22 03:21:32;;;;;;;7.33;4.92;;;;;;;23.80;100.00;99231.55;1662271;85;21094;-67
2022/06/22 03:24:11;;;;;;;9.08;5.20;;;;;;;23.84;100.00;99232.00;1669627;85;21106;-67
2022/06/22 03:26:46;;;;;;;7.55;5.25;;;;;;;23.77;100.00;99238.00;1665326;85;21055;-67
2022/06/22 03:29:41;;;;;;;5.90;5.25;;;;;;;24.07;100.00;99243.19;1666672;85;21095;-67
2022/06/22 03:32:26;;;;;;;9.23;6.30;;;;;;;23.98;100.00;99241.16;1656729;85;21055;-66
2022/06/22 03:35:08;;;;;;;9.35;5.60;;;;;;;24.08;100.00;99251.38;1663861;85;21158;-67
2022/06/22 03:37:41;;;;;;;7.83;5.97;;;;;;;23.90;100.00;99248.34;1667186;85;21142;-67
2022/06/22 03:40:27;;;;;;;9.53;6.17;;;;;;;23.94;100.00;99251.72;1660661;85;21087;-67
2022/06/22 03:42:59;;;;;;;7.85;6.42;;;;;;;23.87;100.00;99258.73;1656627;85;21052;-67
2022/06/22 03:45:37;;;;;;;10.82;6.65;;;;;;;23.77;100.00;99260.84;1664224;85;21519;-66
2022/06/22 03:48:30;;;;;;;8.60;6.42;;;;;;;23.72;100.00;99258.73;1657364;86;21088;-66
2022/06/22 03:51:14;;;;;;;9.55;6.80;;;;;;;23.72;100.00;99267.94;1667442;85;21062;-67
2022/06/22 03:53:51;;;;;;;7.75;6.15;;;;;;;23.81;100.00;99273.12;1659835;85;21062;-66
2022/06/22 03:56:22;;;;;;;10.18;7.08;;;;;;;23.88;100.00;99264.29;1667132;85;21539;-67
2022/06/22 03:58:52;;;;;;;10.65;6.97;;;;;;;23.96;100.00;99267.31;1662858;85;21067;-66
2022/06/22 04:01:21;;;;;;;11.00;7.03;;;;;;;23.95;100.00;99269.64;1660593;85;21083;-66
2022/06/22 04:03:49;;;;;;;10.70;7.47;;;;;;;24.09;100.00;99272.73;1658976;85;21627;-66
2022/06/22 04:06:31;;;;;;;8.18;7.15;;;;;;;24.00;100.00;99273.83;1663422;85;21039;-66
2022/06/22 04:09:02;;;;;;;10.80;7.20;;;;;;;24.07;100.00;99270.80;1664413;85;21083;-66
2022/06/22 04:11:41;;;;;;;11.10;7.47;;;;;;;24.01;100.00;99272.85;1658496;85;21067;-66
2022/06/22 04:14:32;;;;;;;14.28;7.42;;;;;;;24.00;100.00;99276.46;1659223;86;21118;-66
2022/06/22 04:17:04;;;;;;;8.38;7.45;;;;;;;24.06;100.00;99273.60;1659818;85;21051;-66
2022/06/22 04:19:42;;;;;;;9.25;7.62;;;;;;;24.12;100.00;99278.92;1661710;86;21213;-67
2022/06/22 04:22:22;;;;;;;9.35;7.33;;;;;;;24.13;100.00;99274.00;1663911;85;21048;-66
2022/06/22 04:25:03;;;;;;;10.03;7.62;;;;;;;24.25;100.00;99273.48;1661040;86;21118;-66
2022/06/22 04:27:39;;;;;;;9.75;7.92;;;;;;;24.45;100.00;99276.32;1659495;85;21123;-66
2022/06/22 04:30:21;;;;;;;10.90;7.90;;;;;;;24.32;100.00;99278.33;1655533;86;21059;-66
2022/06/22 04:33:10;;;;;;;10.93;8.63;;;;;;;24.53;100.00;99271.80;1654962;85;21489;-66
2022/06/22 04:36:04;;;;;;;13.50;8.80;;;;;;;24.77;100.00;99271.08;1665038;85;21110;-66
2022/06/22 04:38:57;;;;;;;10.80;8.88;;;;;;;24.96;100.00;99266.48;1659217;85;21129;-66
2022/06/22 04:41:35;;;;;;;12.25;9.18;;;;;;;24.96;100.00;99266.48;1662415;85;21610;-66
2022/06/22 04:44:17;;;;;;;12.73;9.08;;;;;;;25.21;100.00;99262.59;1660364;85;21032;-66
2022/06/22 04:46:51;;;;;;;11.73;9.00;;;;;;;25.20;98.27;99263.08;1660196;85;21093;-66
2022/06/22 04:49:33;;;;;;;14.40;9.98;;;;;;;25.09;99.89;99266.26;1663844;85;21062;-66
2022/06/22 04:52:13;;;;;;;15.93;9.35;;;;;;;25.30;98.86;99269.34;1666842;85;21071;-66
2022/06/22 04:54:44;;;;;;;14.10;9.95;;;;;;;25.52;98.08;99264.30;1662337;85;21047;-66
2022/06/22 04:57:22;;;;;;;15.88;9.75;;;;;;;25.60;92.67;99269.92;1660891;86;21058;-66
2022/06/22 04:59:51;;;;;;;15.40;10.88;;;;;;;25.86;88.42;99269.22;1660239;85;21033;-66
2022/06/22 05:02:23;;;;;;;15.10;10.63;;;;;;;25.98;87.08;99265.55;1662457;85;21083;-66
2022/06/22 05:04:59;;;;;;;18.25;11.15;;;;;;;26.33;89.52;99266.22;1663114;85;21146;-66
2022/06/22 05:08:04;;;;;;;17.10;12.37;;;;;;;26.47;85.43;99261.78;1664299;85;21056;-66
2022/06/22 05:10:49;;;;;;;18.05;10.98;;;;;;;26.70;83.54;99260.59;1665831;85;21071;-66
2022/06/22 05:13:21;;;;;;;14.70;8.65;;;;;;;26.11;89.02;99264.24;1663589;85;21104;-66
2022/06/22 05:15:52;;;;;;;13.68;8.30;;;;;;;25.56;85.25;99261.58;1662509;85;21036;-66
2022/06/22 05:18:30;;;;;;;13.30;9.03;;;;;;;25.36;85.75;99258.03;1664489;85;21050;-66
2022/06/22 05:21:18;;;;;;;11.63;7.87;;;;;;;25.45;84.03;99254.77;1663824;85;21008;-66
2022/06/22 05:23:50;;;;;;;8.70;5.85;;;;;;;25.41;81.78;99247.74;1657234;85;21067;-66
2022/06/22 05:26:21;;;;;;;8.73;5.03;;;;;;;25.46;79.98;99251.91;1655508;85;21551;-66
2022/06/22 05:29:00;;;;;;;10.18;5.00;;;;;;;25.23;79.49;99255.34;1658969;85;21543;-66
2022/06/22 05:31:38;;;;;;;7.83;4.30;;;;;;;25.17;76.93;99256.89;1662415;85;21047;-66
2022/06/22 05:34:10;;;;;;;8.50;4.92;;;;;;;25.29;72.83;99252.74;1664679;86;21153;-66
2022/06/22 05:36:42;;;;;;;10.88;4.42;;;;;;;25.49;73.72;99249.41;1656127;85;21067;-66
2022/06/22 05:39:10;;;;;;;7.15;4.17;;;;;;;25.06;69.45;99245.09;1660326;85;21055;-66
2022/06/22 05:41:41;;;;;;;10.00;6.40;;;;;;;25.29;68.69;99250.11;1665537;85;21074;-66
2022/06/22 05:44:13;;;;;;;7.25;4.33;;;;;;;24.99;67.19;99245.02;1664167;85;21579;-66
2022/06/22 05:46:44;;;;;;;9.05;5.33;;;;;;;25.04;64.94;99244.95;1660803;85;21713;-66
2022/06/22 05:49:16;;;;;;;6.50;5.65;;;;;;;25.20;66.34;99240.69;1662074;85;21095;-66
2022/06/22 05:52:18;;;;;;;11.68;6.30;;;;;;;24.91;65.66;99233.83;1665056;85;21542;-66
2022/06/22 05:54:50;;;;;;;9.33;5.90;;;;;;;25.17;65.69;99231.36;1659124;85;21673;-66
2022/06/22 05:57:49;;;;;;;9.88;5.20;;;;;;;25.48;64.35;99221.42;1662892;85;21027;-66
2022/06/22 06:00:24;;;;;;;6.50;5.10;;;;;;;25.15;63.24;99218.09;1663767;85;21144;-67
2022/06/22 06:03:05;;;;;;;7.97;4.50;;;;;;;25.70;63.05;99219.48;1663966;85;21594;-67
2022/06/22 06:05:48;;;;;;;6.00;3.80;;;;;;;25.83;60.67;99222.66;1661284;85;21082;-66
2022/06/22 06:08:37;;;;;;;6.07;3.20;;;;;;;26.00;59.28;99209.47;1662502;85;21094;-66
2022/06/22 06:11:11;;;;;;;3.87;3.47;;;;;;;26.22;57.76;99209.28;1657384;85;21305;-67
2022/06/22 06:13:46;;;;;;;10.00;5.85;;;;;;;26.32;59.89;99209.72;1669546;83;21583;-67
2022/06/22 06:16:24;;;;;;;7.95;5.33;;;;;;;26.38;61.71;99215.51;1676221;83;21055;-66
2022/06/22 06:18:51;;;;;;;10.05;5.50;;;;;;;26.82;57.89;99204.04;1691011;83;21088;-66
2022/06/22 06:21:25;;;;;;;6.62;5.60;;;;;;;26.81;58.20;99209.84;1692074;83;21118;-67
2022/06/22 06:24:01;;;;;;;15.05;7.35;;;;;;;27.06;58.07;99201.26;1687498;83;21331;-66
2022/06/22 06:29:46;;;;;;;12.63;7.58;;;;;;;27.76;62.60;99204.88;1693864;84;21011;-66
2022/06/22 06:32:36;;;;;;;9.78;6.00;;;;;;;27.57;62.12;99207.94;1656626;85;21047;-66
2022/06/22 06:35:43;;;;;;;7.65;5.30;;;;;;;27.41;63.30;99212.34;1655310;85;21066;-66
2022/06/22 06:38:36;;;;;;;6.47;4.75;;;;;;;27.45;62.56;99210.10;1685442;84;21546;-66
2022/06/22 06:41:18;;;;;;;4.72;4.22;;;;;;;27.65;61.65;99193.64;1686181;83;21063;-67
2022/06/22 06:43:56;;;;;;;6.70;3.95;;;;;;;27.67;61.01;99189.47;1679383;84;21099;-66
2022/06/22 06:46:38;;;;;;;4.87;3.27;;;;;;;27.44;58.90;99193.44;1690281;83;21094;-66
2022/06/22 06:49:29;;;;;;;6.80;3.80;;;;;;;27.23;58.62;99195.00;1688478;84;21157;-66
2022/06/22 06:52:01;;;;;;;6.60;3.40;;;;;;;27.47;58.64;99201.45;1687585;84;21043;-67
2022/06/22 06:55:05;;;;;;;5.95;3.42;;;;;;;27.80;56.64;99198.67;1691487;84;20994;-67
2022/06/22 06:57:35;;;;;;;5.72;3.47;;;;;;;27.98;56.26;99188.70;1689052;83;21044;-67
2022/06/22 07:00:07;;;;;;;4.80;3.45;;;;;;;28.46;55.20;99194.77;1689599;84;21019;-67
2022/06/22 07:02:39;;;;;;;4.45;3.17;;;;;;;28.42;54.34;99194.09;1689798;83;21079;-67
2022/06/22 07:05:17;;;;;;;3.85;3.00;;;;;;;28.58;55.12;99186.16;1663588;85;21094;-67
2022/06/22 07:08:18;;;;;;;4.45;3.40;;;;;;;28.64;55.04;99185.29;1683585;83;21649;-67
2022/06/22 07:11:01;;;;;;;4.95;3.37;;;;;;;29.00;53.71;99175.77;1684387;83;21595;-67
2022/06/22 07:13:39;;;;;;;4.60;2.75;;;;;;;28.51;52.58;99180.41;1692766;83;21011;-68
2022/06/22 07:16:12;;;;;;;4.08;2.80;;;;;;;28.27;52.34;99182.52;1690163;83;21590;-67
2022/06/22 07:18:57;;;;;;;4.45;2.90;;;;;;;27.89;51.24;99184.70;1693283;83;21012;-68
2022/06/22 07:21:44;;;;;;;8.73;3.50;;;;;;;27.94;52.17;99181.73;1688522;83;21091;-68
2022/06/22 07:24:29;;;;;;;7.50;3.22;;;;;;;28.13;53.00;99165.41;1689383;84;21079;-68
2022/06/22 07:27:21;;;;;;;5.15;2.83;;;;;;;28.32;49.20;99164.14;1683566;84;21083;-68
2022/06/22 07:30:06;;;;;;;9.75;3.98;;;;;;;28.17;51.06;99156.02;1680397;84;21162;-68
2022/06/22 07:32:48;;;;;;;3.45;2.90;;;;;;;28.56;50.84;99162.55;1693158;83;21164;-68
2022/06/22 07:35:29;;;;;;;7.28;3.33;;;;;;;28.48;48.52;99158.82;1688980;83;21571;-68
2022/06/22 07:38:23;;;;;;;3.87;2.85;;;;;;;28.98;49.31;99165.39;1692642;84;21579;-69
2022/06/22 07:43:38;;;;;;;3.50;2.67;;;;;;;28.13;48.80;99159.31;1692493;84;21058;-68
2022/06/22 07:46:08;;;;;;;4.70;2.50;;;;;;;28.79;49.95;99157.92;1694611;83;21590;-67
2022/06/22 07:48:40;;;;;;;6.65;2.50;;;;;;;29.13;47.05;99172.47;1663322;84;21060;-67
2022/06/22 07:51:12;;;;;;;5.45;2.65;;;;;;;28.80;48.29;99165.38;1689250;83;21093;-67
2022/06/22 07:54:05;;;;;;;3.72;2.67;;;;;;;28.76;48.19;99173.75;1696498;83;21039;-67
2022/06/22 07:56:58;;;;;;;2.90;2.60;;;;;;;28.83;46.51;99171.02;1687889;83;21062;-68
2022/06/22 07:59:34;;;;;;;3.60;2.65;;;;;;;28.96;46.77;99170.90;1683081;83;21040;-68
2022/06/22 08:02:18;;;;;;;4.03;2.47;;;;;;;28.91;46.34;99170.77;1689484;83;21076;-67
2022/06/22 08:05:05;;;;;;;5.53;2.50;;;;;;;29.61;47.44;99160.78;1689647;83;21497;-68
2022/06/22 08:08:01;;;;;;;2.30;2.10;;;;;;;30.10;44.04;99162.31;1694828;83;21082;-68
2022/06/22 08:10:43;;;;;;;4.67;2.20;;;;;;;30.08;42.87;99171.55;1687073;84;21056;-68
2022/06/22 08:13:15;;;;;;;3.37;2.25;;;;;;;30.56;42.76;99171.92;1663032;85;21039;-68
2022/06/22 08:15:47;;;;;;;2.80;2.00;;;;;;;30.36;43.84;99184.20;1690402;84;21036;-68
2022/06/22 08:18:15;;;;;;;6.12;1.95;;;;;;;30.09;42.07;99194.38;1693885;83;21035;-68
2022/06/22 08:20:45;;;;;;;4.83;2.20;;;;;;;30.21;41.84;99192.59;1688408;83;21047;-67
2022/06/22 08:23:24;;;;;;;2.12;1.95;;;;;;;29.91;42.76;99189.98;1688174;83;21084;-68
2022/06/22 08:25:53;;;;;;;2.20;2.00;;;;;;;29.78;42.28;99193.61;1686869;83;21092;-67
2022/06/22 08:28:23;;;;;;;5.15;2.33;;;;;;;29.83;42.36;99198.26;1691353;84;21087;-68
2022/06/22 08:30:53;;;;;;;3.80;1.95;;;;;;;30.05;41.70;99201.18;1688829;83;21051;-68
2022/06/22 08:33:26;;;;;;;5.45;2.20;;;;;;;30.13;42.36;99195.05;1685443;83;20989;-68
2022/06/22 08:36:04;;;;;;;2.15;2.00;;;;;;;30.13;41.19;99199.03;1685900;84;21092;-68
2022/06/22 08:39:07;;;;;;;4.45;2.02;;;;;;;29.95;41.50;99195.92;1687288;83;21102;-68
2022/06/22 08:42:07;;;;;;;2.22;1.90;;;;;;;30.12;40.82;99199.25;1690647;83;21137;-67
2022/06/22 08:44:52;;;;;;;4.28;2.02;;;;;;;30.22;41.82;99186.75;1688779;83;21540;-68
2022/06/22 08:47:56;;;;;;;3.62;1.67;;;;;;;29.78;41.47;99185.66;1672295;84;21043;-68
2022/06/22 08:50:44;;;;;;;2.75;1.80;;;;;;;29.60;41.33;99179.84;1681610;84;21524;-68
2022/06/22 08:53:22;;;;;;;3.52;1.77;;;;;;;29.85;42.53;99179.75;1689585;84;21057;-68
2022/06/22 08:56:27;;;;;;;3.45;1.80;;;;;;;29.88;43.13;99169.20;1682980;83;21040;-68
2022/06/22 08:59:21;;;;;;;2.72;1.87;;;;;;;29.88;43.13;99169.20;1685365;84;21095;-68
2022/06/22 09:02:25;;;;;;;2.22;1.50;;;;;;;29.75;41.90;99185.59;1681150;84;21059;-68
2022/06/22 09:05:01;;;;;;;;;;;;;;;29.37;41.87;99183.20;1693821;84;21095;-68
2022/06/22 09:08:10;;;;;;;3.37;1.90;;;;;;;29.89;41.36;99179.59;1692892;83;20161;-68
2022/06/22 09:11:05;;;;;;;2.55;1.80;;;;;;;30.41;41.92;99187.48;1695838;83;21102;-68
2022/06/22 09:13:56;;;;;;;1.80;1.60;;;;;;;30.61;40.15;99189.28;1687784;84;21091;-68
2022/06/22 09:16:55;;;;;;;6.30;1.70;;;;;;;30.08;39.66;99186.95;1686655;83;21051;-68
2022/06/22 09:19:54;;;;;;;2.00;1.40;;;;;;;30.08;39.66;99186.95;1685056;84;21072;-69
2022/06/22 09:22:54;;;;;;;3.22;1.60;;;;;;;30.02;39.77;99196.34;1688374;84;21072;-68
2022/06/22 09:25:38;;;;;;;3.77;1.70;;;;;;;30.08;41.31;99190.93;1690262;83;21123;-68
2022/06/22 09:28:23;;;;;;;1.72;1.57;;;;;;;30.33;41.20;99191.28;1694883;83;21074;-68
2022/06/22 09:31:33;;;;;;;4.60;1.95;;;;;;;30.25;41.09;99191.09;1692649;84;21105;-68
2022/06/22 09:34:42;;;;;;;2.22;1.60;;;;;;;30.38;41.99;99198.06;1680756;84;21121;-68
2022/06/22 09:37:17;;;;;;;3.90;1.90;;;;;;;29.81;41.55;99191.84;1655001;84;21078;-68
2022/06/22 09:40:10;;;;;;;3.67;1.80;;;;;;;30.03;41.30;99193.47;1681712;84;21101;-67
2022/06/22 09:43:00;;;;;;;;;;;;;;;29.95;40.78;99197.78;1684471;83;21139;-68
2022/06/22 09:45:37;;;;;;;2.55;1.90;;;;;;;29.58;40.95;99193.03;1683571;84;20194;-68
2022/06/22 09:48:35;;;;;;;7.03;2.20;;;;;;;29.09;41.93;99195.63;1686599;84;21349;-68
2022/06/22 09:51:28;;;;;;;3.95;2.27;;;;;;;29.31;42.18;99202.13;1664552;85;21518;-68
2022/06/22 09:58:09;;;;;;;3.40;1.95;;;;;;;29.02;41.79;99202.33;1670102;85;21137;-69
2022/06/22 10:01:04;;;;;;;3.35;1.90;;;;;;;29.18;41.76;99202.79;1669345;85;21086;-68
2022/06/22 10:04:21;;;;;;;2.70;1.92;;;;;;;29.88;41.35;99192.55;1670570;85;21134;-68
2022/06/22 10:07:13;;;;;;;2.30;2.08;;;;;;;29.88;41.35;99192.55;1664007;85;21122;-68
2022/06/22 10:10:00;;;;;;;3.27;1.98;;;;;;;29.62;41.40;99194.20;1607713;85;21113;-67
2022/06/22 10:12:54;;;;;;;3.15;2.00;;;;;;;29.19;41.83;99194.63;1679299;84;21011;-68
2022/06/22 10:15:44;;;;;;;3.42;2.52;;;;;;;28.49;43.72;99202.29;1686177;83;21082;-68
2022/06/22 10:18:28;;;;;;;3.87;2.67;;;;;;;27.77;44.81;99214.42;1684534;83;21537;-68
2022/06/22 10:21:13;;;;;;;6.50;2.60;;;;;;;27.91;45.01;99215.20;1681722;83;21058;-68
2022/06/22 10:24:05;;;;;;;6.28;2.50;;;;;;;28.13;45.83;99214.88;1677882;84;21507;-68
2022/06/22 10:26:50;;;;;;;5.62;1.90;;;;;;;28.18;44.60;99216.34;1685441;84;21846;-68
2022/06/22 10:29:30;;;;;;;6.03;1.75;;;;;;;28.10;45.18;99220.09;1678020;84;21137;-68
2022/06/22 10:32:20;;;;;;;4.42;1.70;;;;;;;28.16;45.47;99215.75;1675361;84;21075;-68
2022/06/22 10:35:24;;;;;;;1.70;1.52;;;;;;;28.25;45.66;99223.74;1677466;84;21023;-68
2022/06/22 10:38:12;;;;;;;5.47;1.40;;;;;;;28.43;44.74;99226.98;1680349;84;21102;-68
2022/06/22 10:47:38;;;;;;;2.25;1.20;;;;;;;27.85;45.01;99246.95;1686274;84;21209;-68
2022/06/22 10:50:19;;;;;;;4.28;1.25;;;;;;;27.24;46.79;99246.87;1666797;85;21110;-68
2022/06/22 10:53:42;;;;;;;3.77;1.37;;;;;;;27.02;48.34;99260.28;1672364;85;21024;-68
2022/06/22 10:56:32;;;;;;;2.05;1.40;;;;;;;26.92;48.92;99264.65;1672229;85;21543;-68
2022/06/22 10:59:20;;;;;;;4.67;1.40;;;;;;;26.46;49.45;99275.17;1685676;85;21106;-68
2022/06/22 11:02:14;;;;;;;2.05;1.50;;;;;;;25.99;50.50;99269.79;1675934;84;21066;-68
2022/06/22 11:05:03;;;;;;;4.10;1.40;;;;;;;25.30;51.72;99278.56;1685092;83;21553;-68
2022/06/22 11:08:19;;;;;;;7.45;1.80;;;;;;;25.23;53.48;99273.78;1660195;85;21575;-67
2022/06/22 11:11:11;;;;;;;1.98;1.62;;;;;;;25.30;55.64;99281.20;1673583;85;21103;-67
2022/06/22 11:14:08;;;;;;;2.85;1.60;;;;;;;24.37;60.67;99278.56;1669772;85;21012;-68
2022/06/22 11:16:48;;;;;;;3.17;1.90;;;;;;;24.09;62.58;99274.56;1669596;85;21657;-68
2022/06/22 11:19:40;;;;;;;2.67;1.62;;;;;;;24.42;65.03;99268.83;1670482;85;21182;-68
2022/06/22 11:22:35;;;;;;;4.92;1.80;;;;;;;24.66;64.48;99268.97;1668755;85;21063;-68
2022/06/22 11:32:17;;;;;;;2.75;1.47;;;;;;;26.81;58.08;99252.08;1680321;83;21050;-67
2022/06/22 11:35:20;;;;;;;1.40;1.27;;;;;;;27.66;56.41;99241.55;1685750;84;21058;-68
2022/06/22 11:38:09;;;;;;;2.05;1.40;;;;;;;28.28;51.80;99233.08;1685305;84;21030;-67
2022/06/22 11:41:04;;;;;;;2.02;1.40;;;;;;;27.57;53.01;99238.82;1682054;84;21050;-68
2022/06/22 11:44:07;;;;;;;3.60;1.60;;;;;;;27.89;52.93;99234.95;1678207;84;21095;-68
2022/06/22 11:46:54;;;;;;;3.15;1.57;;;;;;;28.81;52.36;99218.63;1655563;85;21011;-68
2022/06/22 11:50:00;;;;;;;1.80;1.37;;;;;;;28.89;49.49;99213.88;1684157;84;21507;-68
2022/06/22 11:52:42;;;;;;;2.22;1.30;;;;;;;28.39;52.88;99208.58;1671743;85;21508;-68
2022/06/22 11:55:32;;;;;;;1.50;1.27;;;;;;;28.65;50.93;99204.94;1673884;84;21078;-68
2022/06/22 11:58:17;;;;;;;4.60;1.35;;;;;;;27.76;49.85;99205.41;1657084;85;21043;-67
2022/06/22 12:01:12;;;;;;;2.87;1.25;;;;;;;28.06;50.60;99203.02;1681834;84;21530;-67
2022/06/22 12:04:14;;;;;;;3.15;1.37;;;;;;;28.45;49.29;99201.10;1683186;83;21059;-68
2022/06/22 12:07:08;;;;;;;2.27;1.15;;;;;;;28.91;50.22;99203.88;1679445;84;21063;-68
2022/06/22 12:09:58;;;;;;;2.72;1.60;;;;;;;29.13;48.50;99205.59;1685029;85;21483;-68
2022/06/22 12:12:56;;;;;;;3.33;1.42;;;;;;;29.62;50.13;99194.20;1684545;84;21046;-68
2022/06/22 12:15:56;;;;;;;1.25;1.15;;;;;;;30.32;47.37;99190.48;1680582;84;21101;-68
2022/06/22 12:18:44;;;;;;;2.45;1.40;;;;;;;29.85;45.87;99194.86;1684891;83;21007;-68
2022/06/22 12:21:43;;;;;;;2.17;1.40;;;;;;;29.86;45.43;99205.22;1675730;85;21063;-68
2022/06/22 12:24:30;;;;;;;4.42;1.45;;;;;;;28.87;46.84;99196.56;1684305;84;21074;-68
2022/06/22 12:27:12;;;;;;;5.33;1.50;;;;;;;28.50;47.33;99195.98;1682274;84;21043;-68
2022/06/22 12:29:53;;;;;;;4.05;1.30;;;;;;;28.19;49.41;99213.22;1682472;84;21118;-68
2022/06/22 12:32:45;;;;;;;3.45;1.00;;;;;;;25.39;53.88;99238.71;1664585;85;21527;-68
2022/06/22 12:35:27;;;;;;;4.17;1.20;;;;;;;24.27;57.56;99230.25;1671197;85;21054;-68
2022/06/22 12:38:03;;;;;;;7.15;1.10;;;;;;;23.27;61.32;99245.30;1668706;85;21546;-68
2022/06/22 12:40:39;;;;;;;2.83;1.07;;;;;;;23.07;62.24;99246.32;1656892;85;21118;-68
2022/06/22 12:43:35;;;;;;;4.72;1.00;;;;;;;23.37;61.79;99236.14;1661987;85;21078;-67
2022/06/22 12:46:31;;;;;;;1.55;0.90;;;;;;;23.76;60.89;99240.30;1660156;85;21542;-68
2022/06/22 12:49:18;;;;;;;2.75;1.00;;;;;;;24.33;60.56;99243.96;1663107;85;21051;-68
2022/06/22 12:52:02;;;;;;;1.32;0.70;;;;;;;25.29;59.09;99241.40;1665250;85;21019;-68
2022/06/22 12:54:41;;;;;;;3.70;0.80;;;;;;;25.35;57.95;99246.69;1621900;87;21596;-68
2022/06/22 12:57:16;;;;;;;3.72;0.90;;;;;;;25.62;58.19;99244.18;1632127;86;21122;-68
2022/06/22 13:00:10;;;;;;;1.67;1.10;;;;;;;26.10;58.47;99244.69;1629576;87;21095;-68
2022/06/22 13:02:40;;;;;;;0.98;0.90;;;;;;;27.41;56.91;99243.25;1619055;87;21210;-68
2022/06/22 13:05:24;;;;;;;1.00;0.80;;;;;;;28.30;52.69;99245.06;1653926;85;21495;-68
2022/06/22 13:08:03;;;;;;;1.02;0.70;;;;;;;27.73;52.89;99249.44;1679672;84;21570;-67
2022/06/22 13:10:40;;;;;;;2.33;0.90;;;;;;;28.38;50.72;99253.27;1680849;84;21099;-68
2022/06/22 13:13:19;;;;;;;1.17;0.72;;;;;;;28.63;50.50;99248.03;1684310;83;21574;-68